Overview Statistics Trail Chart Weather Telemetry Raw packets
 

This is the latest recevied weather packets stored in our database for station/object W2SRH. If no packets are shown the sender has not sent any weather packets the latest 10 day(s).

<< 71 72 73 74 75 76 77 >>
Time Temp. Humidity Pressure Rain* Wind** Luminosity Snow
1787795479 23.89° C 67% 1008.8 hPa 0 mm 0 m/s - -
1787795411 23.89° C 67% 1009.1 hPa 0 mm 0 m/s - -
1787795345 23.89° C 67% 1009.1 hPa 0 mm 0 m/s - -
1787794743 23.89° C 67% 1009 hPa 0 mm 0 m/s - -
1787794143 23.89° C 67% 1008.8 hPa 0 mm 0 m/s - -
1787793559 24.44° C 65% 1008.7 hPa 0 mm 0 m/s - -
1787793546 24.44° C 65% 1008.6 hPa 0 mm 0 m/s - -
1787793544 24.44° C 66% 1008.8 hPa 0 mm 0 m/s - -
1787792944 24.44° C 66% 1008.7 hPa 0 mm 0 m/s - -
1787792344 24.44° C 65% 1008.7 hPa 0 mm 0 m/s - -
1787791745 24.44° C 65% 1008.6 hPa 0 mm 0 m/s - -
1787791144 24.44° C 64% 1008.5 hPa 0 mm 0 m/s - -
1787790543 25° C 63% 1008.5 hPa 0 mm 0 m/s - -
1787789944 25° C 62% 1008.5 hPa 0 mm 0 m/s - -
1787789710 26.11° C 57% 1008.1 hPa 0 mm 0 m/s - -
1787789344 25° C 60% 1008.3 hPa 0 mm 0 m/s - -
1787788743 25.56° C 59% 1008.1 hPa 0 mm 0 m/s - -
1787788145 26.11° C 57% 1008.1 hPa 0 mm 0 m/s - -
1787787544 26.11° C 56% 1008.1 hPa 0 mm 0 m/s - -
1787786944 26.67° C 55% 1008.3 hPa 0 mm 0 m/s - -
1787786344 26.67° C 54% 1008.4 hPa 0 mm 0 m/s - -
1787785745 26.67° C 53% 1008.4 hPa 0 mm 0.45 m/s, 286° - -
1787785145 27.22° C 51% 1008.4 hPa 0 mm 0.45 m/s, 264° - -
1787784545 27.78° C 51% 1008.6 hPa 0 mm 0 m/s - -
1787783945 27.22° C 49% 1008.6 hPa 0 mm 0 m/s - -

* Rain latest hour (hover to see other rain measurements)
** Current wind speed in m/s (hover to see current wind gust speed)